sensor_id;sensor_type;location;lat;lon;timestamp;P1;durP1;ratioP1;P2;durP2;ratioP2
76881;SDS011;65847;50.998;11.318;2022-12-18T00:01:59;4.55;;;4.05;;
76881;SDS011;65847;50.998;11.318;2022-12-18T00:04:25;4.03;;;3.72;;
76881;SDS011;65847;50.998;11.318;2022-12-18T00:06:52;4.32;;;3.45;;
76881;SDS011;65847;50.998;11.318;2022-12-18T00:09:19;4.07;;;3.17;;
76881;SDS011;65847;50.998;11.318;2022-12-18T00:11:45;3.85;;;3.45;;
76881;SDS011;65847;50.998;11.318;2022-12-18T00:14:11;4.32;;;3.67;;
76881;SDS011;65847;50.998;11.318;2022-12-18T00:16:38;4.45;;;4.00;;
76881;SDS011;65847;50.998;11.318;2022-12-18T00:19:04;3.53;;;3.22;;
76881;SDS011;65847;50.998;11.318;2022-12-18T00:21:31;4.13;;;3.35;;
76881;SDS011;65847;50.998;11.318;2022-12-18T00:23:58;3.70;;;3.17;;
76881;SDS011;65847;50.998;11.318;2022-12-18T00:26:25;3.50;;;3.10;;
76881;SDS011;65847;50.998;11.318;2022-12-18T00:28:52;3.92;;;3.33;;
76881;SDS011;65847;50.998;11.318;2022-12-18T00:31:19;4.20;;;3.45;;
76881;SDS011;65847;50.998;11.318;2022-12-18T00:33:45;4.00;;;3.20;;
76881;SDS011;65847;50.998;11.318;2022-12-18T00:38:37;3.75;;;3.38;;
76881;SDS011;65847;50.998;11.318;2022-12-18T00:41:04;4.07;;;3.30;;
76881;SDS011;65847;50.998;11.318;2022-12-18T00:43:30;3.70;;;3.38;;
76881;SDS011;65847;50.998;11.318;2022-12-18T00:45:59;4.25;;;3.17;;
76881;SDS011;65847;50.998;11.318;2022-12-18T00:48:25;3.92;;;3.53;;
76881;SDS011;65847;50.998;11.318;2022-12-18T00:50:51;3.83;;;3.42;;
76881;SDS011;65847;50.998;11.318;2022-12-18T00:53:17;4.05;;;3.75;;
76881;SDS011;65847;50.998;11.318;2022-12-18T00:55:44;3.85;;;3.45;;
76881;SDS011;65847;50.998;11.318;2022-12-18T01:00:36;3.72;;;3.42;;
76881;SDS011;65847;50.998;11.318;2022-12-18T01:03:03;4.13;;;3.30;;
76881;SDS011;65847;50.998;11.318;2022-12-18T01:05:29;4.45;;;3.55;;
76881;SDS011;65847;50.998;11.318;2022-12-18T01:07:55;4.13;;;3.72;;
76881;SDS011;65847;50.998;11.318;2022-12-18T01:10:22;4.40;;;3.85;;
76881;SDS011;65847;50.998;11.318;2022-12-18T01:12:48;4.03;;;3.40;;
76881;SDS011;65847;50.998;11.318;2022-12-18T01:15:14;4.65;;;3.67;;
76881;SDS011;65847;50.998;11.318;2022-12-18T01:17:41;4.10;;;3.70;;
76881;SDS011;65847;50.998;11.318;2022-12-18T01:20:07;3.47;;;3.17;;
76881;SDS011;65847;50.998;11.318;2022-12-18T01:22:34;3.95;;;3.55;;
76881;SDS011;65847;50.998;11.318;2022-12-18T01:25:00;3.85;;;3.45;;
76881;SDS011;65847;50.998;11.318;2022-12-18T01:27:26;3.95;;;3.55;;
76881;SDS011;65847;50.998;11.318;2022-12-18T01:29:52;3.80;;;3.50;;
76881;SDS011;65847;50.998;11.318;2022-12-18T01:32:18;4.63;;;4.20;;
76881;SDS011;65847;50.998;11.318;2022-12-18T01:34:44;3.60;;;2.97;;
76881;SDS011;65847;50.998;11.318;2022-12-18T01:37:10;3.30;;;2.95;;
76881;SDS011;65847;50.998;11.318;2022-12-18T01:39:37;3.80;;;3.40;;
76881;SDS011;65847;50.998;11.318;2022-12-18T01:42:03;3.80;;;3.50;;
76881;SDS011;65847;50.998;11.318;2022-12-18T01:47:15;3.78;;;3.00;;
76881;SDS011;65847;50.998;11.318;2022-12-18T01:49:44;3.92;;;3.40;;
76881;SDS011;65847;50.998;11.318;2022-12-18T01:52:10;3.92;;;3.40;;
76881;SDS011;65847;50.998;11.318;2022-12-18T01:54:36;3.78;;;3.22;;
76881;SDS011;65847;50.998;11.318;2022-12-18T01:57:02;4.15;;;3.60;;
76881;SDS011;65847;50.998;11.318;2022-12-18T01:59:28;3.90;;;3.55;;
76881;SDS011;65847;50.998;11.318;2022-12-18T02:01:56;3.95;;;3.50;;
76881;SDS011;65847;50.998;11.318;2022-12-18T02:04:25;4.03;;;3.63;;
76881;SDS011;65847;50.998;11.318;2022-12-18T02:09:46;3.90;;;3.50;;
76881;SDS011;65847;50.998;11.318;2022-12-18T02:17:21;3.72;;;3.38;;
76881;SDS011;65847;50.998;11.318;2022-12-18T02:19:55;3.53;;;3.20;;
76881;SDS011;65847;50.998;11.318;2022-12-18T02:27:34;3.08;;;2.78;;
76881;SDS011;65847;50.998;11.318;2022-12-18T02:30:02;4.50;;;3.83;;
76881;SDS011;65847;50.998;11.318;2022-12-18T02:32:40;3.72;;;3.25;;
76881;SDS011;65847;50.998;11.318;2022-12-18T02:35:11;3.35;;;3.05;;
76881;SDS011;65847;50.998;11.318;2022-12-18T02:37:41;3.63;;;3.33;;
76881;SDS011;65847;50.998;11.318;2022-12-18T02:40:08;3.30;;;2.83;;
76881;SDS011;65847;50.998;11.318;2022-12-18T02:42:34;4.07;;;3.30;;
76881;SDS011;65847;50.998;11.318;2022-12-18T02:45:00;3.63;;;3.10;;
76881;SDS011;65847;50.998;11.318;2022-12-18T02:47:36;3.67;;;3.30;;
76881;SDS011;65847;50.998;11.318;2022-12-18T02:50:14;3.80;;;3.03;;
76881;SDS011;65847;50.998;11.318;2022-12-18T02:57:55;3.85;;;3.50;;
76881;SDS011;65847;50.998;11.318;2022-12-18T03:03:55;3.88;;;3.47;;
76881;SDS011;65847;50.998;11.318;2022-12-18T03:08:54;3.38;;;3.00;;
76881;SDS011;65847;50.998;11.318;2022-12-18T03:11:22;4.10;;;3.65;;
76881;SDS011;65847;50.998;11.318;2022-12-18T03:14:08;3.20;;;2.90;;
76881;SDS011;65847;50.998;11.318;2022-12-18T03:16:35;3.45;;;3.15;;
76881;SDS011;65847;50.998;11.318;2022-12-18T03:19:04;3.15;;;2.85;;
76881;SDS011;65847;50.998;11.318;2022-12-18T03:21:33;3.42;;;3.10;;
76881;SDS011;65847;50.998;11.318;2022-12-18T03:24:03;3.50;;;3.20;;
76881;SDS011;65847;50.998;11.318;2022-12-18T03:26:30;2.97;;;2.78;;
76881;SDS011;65847;50.998;11.318;2022-12-18T03:29:00;3.47;;;3.05;;
76881;SDS011;65847;50.998;11.318;2022-12-18T03:31:28;4.25;;;3.50;;
76881;SDS011;65847;50.998;11.318;2022-12-18T03:34:00;3.55;;;2.80;;
76881;SDS011;65847;50.998;11.318;2022-12-18T03:36:27;3.40;;;3.10;;
76881;SDS011;65847;50.998;11.318;2022-12-18T03:38:56;3.45;;;3.15;;
76881;SDS011;65847;50.998;11.318;2022-12-18T03:41:30;3.17;;;2.92;;
76881;SDS011;65847;50.998;11.318;2022-12-18T03:46:51;3.13;;;2.55;;
76881;SDS011;65847;50.998;11.318;2022-12-18T03:49:25;3.65;;;3.35;;
76881;SDS011;65847;50.998;11.318;2022-12-18T03:52:02;3.33;;;3.03;;
76881;SDS011;65847;50.998;11.318;2022-12-18T03:54:30;3.50;;;3.20;;
76881;SDS011;65847;50.998;11.318;2022-12-18T03:57:02;3.58;;;3.28;;
76881;SDS011;65847;50.998;11.318;2022-12-18T03:59:30;3.22;;;2.55;;
76881;SDS011;65847;50.998;11.318;2022-12-18T04:01:57;3.22;;;2.92;;
76881;SDS011;65847;50.998;11.318;2022-12-18T04:04:24;3.67;;;3.38;;
76881;SDS011;65847;50.998;11.318;2022-12-18T04:06:51;3.28;;;2.95;;
76881;SDS011;65847;50.998;11.318;2022-12-18T04:09:18;3.40;;;3.10;;
76881;SDS011;65847;50.998;11.318;2022-12-18T04:11:45;3.20;;;2.35;;
76881;SDS011;65847;50.998;11.318;2022-12-18T04:14:11;3.60;;;2.85;;
76881;SDS011;65847;50.998;11.318;2022-12-18T04:16:37;3.25;;;3.00;;
76881;SDS011;65847;50.998;11.318;2022-12-18T04:19:04;2.92;;;2.63;;
76881;SDS011;65847;50.998;11.318;2022-12-18T04:21:30;3.13;;;2.83;;
76881;SDS011;65847;50.998;11.318;2022-12-18T04:23:56;3.70;;;3.28;;
76881;SDS011;65847;50.998;11.318;2022-12-18T04:26:22;2.88;;;2.63;;
76881;SDS011;65847;50.998;11.318;2022-12-18T04:28:48;3.25;;;2.70;;
76881;SDS011;65847;50.998;11.318;2022-12-18T04:31:14;3.20;;;2.70;;
76881;SDS011;65847;50.998;11.318;2022-12-18T04:33:40;3.13;;;2.83;;
76881;SDS011;65847;50.998;11.318;2022-12-18T04:36:06;3.10;;;2.80;;
76881;SDS011;65847;50.998;11.318;2022-12-18T04:38:32;2.83;;;2.63;;
76881;SDS011;65847;50.998;11.318;2022-12-18T04:40:59;3.03;;;2.80;;
76881;SDS011;65847;50.998;11.318;2022-12-18T04:43:25;2.60;;;2.40;;
76881;SDS011;65847;50.998;11.318;2022-12-18T04:45:51;2.90;;;2.60;;
76881;SDS011;65847;50.998;11.318;2022-12-18T04:48:17;3.05;;;2.72;;
76881;SDS011;65847;50.998;11.318;2022-12-18T04:50:43;3.28;;;2.72;;
76881;SDS011;65847;50.998;11.318;2022-12-18T04:53:09;2.90;;;2.60;;
76881;SDS011;65847;50.998;11.318;2022-12-18T04:55:35;3.20;;;2.90;;
76881;SDS011;65847;50.998;11.318;2022-12-18T04:58:01;2.70;;;2.45;;
76881;SDS011;65847;50.998;11.318;2022-12-18T05:00:27;3.42;;;2.70;;
76881;SDS011;65847;50.998;11.318;2022-12-18T05:02:53;3.38;;;3.08;;
76881;SDS011;65847;50.998;11.318;2022-12-18T05:05:19;2.83;;;2.47;;
76881;SDS011;65847;50.998;11.318;2022-12-18T05:07:45;3.67;;;2.95;;
76881;SDS011;65847;50.998;11.318;2022-12-18T05:10:11;3.10;;;2.80;;
76881;SDS011;65847;50.998;11.318;2022-12-18T05:12:37;2.53;;;2.33;;
76881;SDS011;65847;50.998;11.318;2022-12-18T05:15:23;2.88;;;2.45;;
76881;SDS011;65847;50.998;11.318;2022-12-18T05:17:49;2.40;;;2.20;;
76881;SDS011;65847;50.998;11.318;2022-12-18T05:20:15;2.50;;;2.30;;
76881;SDS011;65847;50.998;11.318;2022-12-18T05:22:41;3.00;;;2.70;;
76881;SDS011;65847;50.998;11.318;2022-12-18T05:25:07;2.85;;;2.53;;
76881;SDS011;65847;50.998;11.318;2022-12-18T05:27:33;3.15;;;2.65;;
76881;SDS011;65847;50.998;11.318;2022-12-18T05:29:59;3.00;;;2.75;;
76881;SDS011;65847;50.998;11.318;2022-12-18T05:32:25;2.33;;;2.13;;
76881;SDS011;65847;50.998;11.318;2022-12-18T05:34:51;3.40;;;2.60;;
76881;SDS011;65847;50.998;11.318;2022-12-18T05:37:17;2.97;;;2.67;;
76881;SDS011;65847;50.998;11.318;2022-12-18T05:39:43;3.00;;;2.67;;
76881;SDS011;65847;50.998;11.318;2022-12-18T05:42:09;2.60;;;2.40;;
76881;SDS011;65847;50.998;11.318;2022-12-18T05:44:35;2.65;;;2.45;;
76881;SDS011;65847;50.998;11.318;2022-12-18T05:47:01;2.80;;;2.45;;
76881;SDS011;65847;50.998;11.318;2022-12-18T05:49:27;2.65;;;2.45;;
76881;SDS011;65847;50.998;11.318;2022-12-18T05:51:53;2.55;;;2.35;;
76881;SDS011;65847;50.998;11.318;2022-12-18T05:54:19;2.97;;;2.55;;
76881;SDS011;65847;50.998;11.318;2022-12-18T05:56:45;2.85;;;2.30;;
76881;SDS011;65847;50.998;11.318;2022-12-18T05:59:11;3.10;;;2.80;;
76881;SDS011;65847;50.998;11.318;2022-12-18T06:01:38;2.47;;;2.28;;
76881;SDS011;65847;50.998;11.318;2022-12-18T06:04:04;3.15;;;2.78;;
76881;SDS011;65847;50.998;11.318;2022-12-18T06:06:30;2.97;;;2.47;;
76881;SDS011;65847;50.998;11.318;2022-12-18T06:08:56;2.58;;;2.38;;
76881;SDS011;65847;50.998;11.318;2022-12-18T06:11:23;2.55;;;2.33;;
76881;SDS011;65847;50.998;11.318;2022-12-18T06:13:50;2.50;;;2.30;;
76881;SDS011;65847;50.998;11.318;2022-12-18T06:16:17;2.85;;;2.53;;
76881;SDS011;65847;50.998;11.318;2022-12-18T06:18:43;2.60;;;2.40;;
76881;SDS011;65847;50.998;11.318;2022-12-18T06:21:09;2.40;;;2.20;;
76881;SDS011;65847;50.998;11.318;2022-12-18T06:23:35;2.83;;;2.53;;
76881;SDS011;65847;50.998;11.318;2022-12-18T06:26:08;2.97;;;2.78;;
76881;SDS011;65847;50.998;11.318;2022-12-18T06:28:35;2.83;;;2.47;;
76881;SDS011;65847;50.998;11.318;2022-12-18T06:31:02;2.15;;;1.90;;
76881;SDS011;65847;50.998;11.318;2022-12-18T06:33:29;2.78;;;2.30;;
76881;SDS011;65847;50.998;11.318;2022-12-18T06:35:59;2.20;;;1.88;;
76881;SDS011;65847;50.998;11.318;2022-12-18T06:38:26;2.58;;;2.38;;
76881;SDS011;65847;50.998;11.318;2022-12-18T06:40:52;2.75;;;2.47;;
76881;SDS011;65847;50.998;11.318;2022-12-18T06:43:18;2.30;;;1.98;;
76881;SDS011;65847;50.998;11.318;2022-12-18T06:45:44;2.30;;;2.10;;
76881;SDS011;65847;50.998;11.318;2022-12-18T06:48:14;2.70;;;2.50;;
76881;SDS011;65847;50.998;11.318;2022-12-18T06:50:43;2.30;;;2.10;;
76881;SDS011;65847;50.998;11.318;2022-12-18T06:53:09;2.90;;;2.47;;
76881;SDS011;65847;50.998;11.318;2022-12-18T06:55:35;2.63;;;2.42;;
76881;SDS011;65847;50.998;11.318;2022-12-18T06:58:01;2.53;;;2.33;;
76881;SDS011;65847;50.998;11.318;2022-12-18T07:00:27;2.50;;;2.30;;
76881;SDS011;65847;50.998;11.318;2022-12-18T07:02:53;2.47;;;2.28;;
76881;SDS011;65847;50.998;11.318;2022-12-18T07:05:19;3.03;;;2.72;;
76881;SDS011;65847;50.998;11.318;2022-12-18T07:07:45;2.72;;;2.53;;
76881;SDS011;65847;50.998;11.318;2022-12-18T07:10:11;2.65;;;2.30;;
76881;SDS011;65847;50.998;11.318;2022-12-18T07:12:37;2.60;;;2.40;;
76881;SDS011;65847;50.998;11.318;2022-12-18T07:15:03;2.10;;;1.90;;
76881;SDS011;65847;50.998;11.318;2022-12-18T07:17:30;2.50;;;2.30;;
76881;SDS011;65847;50.998;11.318;2022-12-18T07:19:56;2.28;;;2.08;;
76881;SDS011;65847;50.998;11.318;2022-12-18T07:22:22;2.95;;;2.65;;
76881;SDS011;65847;50.998;11.318;2022-12-18T07:24:51;2.17;;;1.98;;
76881;SDS011;65847;50.998;11.318;2022-12-18T07:27:17;2.20;;;2.00;;
76881;SDS011;65847;50.998;11.318;2022-12-18T07:29:43;2.50;;;2.30;;
76881;SDS011;65847;50.998;11.318;2022-12-18T07:32:09;2.63;;;2.42;;
76881;SDS011;65847;50.998;11.318;2022-12-18T07:34:35;2.45;;;2.25;;
76881;SDS011;65847;50.998;11.318;2022-12-18T07:40:10;2.10;;;1.90;;
76881;SDS011;65847;50.998;11.318;2022-12-18T07:42:37;2.42;;;2.17;;
76881;SDS011;65847;50.998;11.318;2022-12-18T07:45:03;3.30;;;2.45;;
76881;SDS011;65847;50.998;11.318;2022-12-18T07:47:35;2.20;;;2.00;;
76881;SDS011;65847;50.998;11.318;2022-12-18T07:52:58;2.17;;;1.98;;
76881;SDS011;65847;50.998;11.318;2022-12-18T07:55:28;2.90;;;2.20;;
76881;SDS011;65847;50.998;11.318;2022-12-18T07:57:54;2.20;;;1.85;;
76881;SDS011;65847;50.998;11.318;2022-12-18T08:00:20;2.55;;;2.33;;
76881;SDS011;65847;50.998;11.318;2022-12-18T08:03:03;2.47;;;2.25;;
76881;SDS011;65847;50.998;11.318;2022-12-18T08:05:29;2.25;;;2.05;;
76881;SDS011;65847;50.998;11.318;2022-12-18T08:07:57;2.50;;;2.30;;
76881;SDS011;65847;50.998;11.318;2022-12-18T08:10:23;2.00;;;1.77;;
76881;SDS011;65847;50.998;11.318;2022-12-18T08:12:50;2.60;;;2.40;;
76881;SDS011;65847;50.998;11.318;2022-12-18T08:15:16;2.17;;;1.98;;
76881;SDS011;65847;50.998;11.318;2022-12-18T08:17:42;2.00;;;1.80;;
76881;SDS011;65847;50.998;11.318;2022-12-18T08:20:16;2.20;;;1.95;;
76881;SDS011;65847;50.998;11.318;2022-12-18T08:22:53;2.38;;;2.17;;
76881;SDS011;65847;50.998;11.318;2022-12-18T08:25:26;1.85;;;1.65;;
76881;SDS011;65847;50.998;11.318;2022-12-18T08:27:52;2.40;;;2.20;;
76881;SDS011;65847;50.998;11.318;2022-12-18T08:30:18;2.15;;;1.90;;
76881;SDS011;65847;50.998;11.318;2022-12-18T08:32:44;2.00;;;1.80;;
76881;SDS011;65847;50.998;11.318;2022-12-18T08:35:26;2.42;;;1.98;;
76881;SDS011;65847;50.998;11.318;2022-12-18T08:37:55;2.30;;;2.10;;
76881;SDS011;65847;50.998;11.318;2022-12-18T08:40:21;2.17;;;2.00;;
76881;SDS011;65847;50.998;11.318;2022-12-18T08:42:47;2.20;;;1.95;;
76881;SDS011;65847;50.998;11.318;2022-12-18T08:45:31;2.25;;;2.05;;
76881;SDS011;65847;50.998;11.318;2022-12-18T08:47:58;2.10;;;1.90;;
76881;SDS011;65847;50.998;11.318;2022-12-18T08:50:39;2.15;;;1.88;;
76881;SDS011;65847;50.998;11.318;2022-12-18T08:53:28;2.38;;;1.98;;
76881;SDS011;65847;50.998;11.318;2022-12-18T08:55:56;2.10;;;1.90;;
76881;SDS011;65847;50.998;11.318;2022-12-18T08:58:22;1.90;;;1.70;;
76881;SDS011;65847;50.998;11.318;2022-12-18T09:00:48;1.88;;;1.60;;
76881;SDS011;65847;50.998;11.318;2022-12-18T09:03:15;2.00;;;1.67;;
76881;SDS011;65847;50.998;11.318;2022-12-18T09:05:50;2.60;;;2.00;;
76881;SDS011;65847;50.998;11.318;2022-12-18T09:08:24;1.83;;;1.73;;
76881;SDS011;65847;50.998;11.318;2022-12-18T09:13:46;2.03;;;1.80;;
76881;SDS011;65847;50.998;11.318;2022-12-18T09:16:12;2.10;;;1.90;;
76881;SDS011;65847;50.998;11.318;2022-12-18T09:18:38;2.20;;;2.00;;
76881;SDS011;65847;50.998;11.318;2022-12-18T09:21:11;1.92;;;1.80;;
76881;SDS011;65847;50.998;11.318;2022-12-18T09:23:37;2.00;;;1.90;;
76881;SDS011;65847;50.998;11.318;2022-12-18T09:26:03;2.42;;;1.92;;
76881;SDS011;65847;50.998;11.318;2022-12-18T09:28:29;2.10;;;1.90;;
76881;SDS011;65847;50.998;11.318;2022-12-18T09:30:55;2.17;;;1.90;;
76881;SDS011;65847;50.998;11.318;2022-12-18T09:33:21;2.17;;;1.98;;
76881;SDS011;65847;50.998;11.318;2022-12-18T09:35:47;2.10;;;1.90;;
76881;SDS011;65847;50.998;11.318;2022-12-18T09:38:15;2.30;;;2.10;;
76881;SDS011;65847;50.998;11.318;2022-12-18T09:40:42;2.85;;;2.28;;
76881;SDS011;65847;50.998;11.318;2022-12-18T09:43:12;2.17;;;1.98;;
76881;SDS011;65847;50.998;11.318;2022-12-18T09:45:44;2.13;;;1.80;;
76881;SDS011;65847;50.998;11.318;2022-12-18T09:48:25;2.20;;;2.00;;
76881;SDS011;65847;50.998;11.318;2022-12-18T09:50:52;1.98;;;1.88;;
76881;SDS011;65847;50.998;11.318;2022-12-18T09:53:20;2.20;;;1.95;;
76881;SDS011;65847;50.998;11.318;2022-12-18T09:55:48;2.00;;;1.90;;
76881;SDS011;65847;50.998;11.318;2022-12-18T09:58:25;1.80;;;1.60;;
76881;SDS011;65847;50.998;11.318;2022-12-18T10:00:52;2.45;;;2.00;;
76881;SDS011;65847;50.998;11.318;2022-12-18T10:03:19;1.90;;;1.80;;
76881;SDS011;65847;50.998;11.318;2022-12-18T10:13:47;1.90;;;1.70;;
76881;SDS011;65847;50.998;11.318;2022-12-18T10:16:50;2.10;;;1.90;;
76881;SDS011;65847;50.998;11.318;2022-12-18T10:24:14;1.75;;;1.58;;
76881;SDS011;65847;50.998;11.318;2022-12-18T10:26:42;1.90;;;1.70;;
76881;SDS011;65847;50.998;11.318;2022-12-18T10:29:12;2.00;;;1.80;;
76881;SDS011;65847;50.998;11.318;2022-12-18T10:31:38;2.03;;;1.70;;
76881;SDS011;65847;50.998;11.318;2022-12-18T10:34:09;2.33;;;1.98;;
76881;SDS011;65847;50.998;11.318;2022-12-18T10:36:35;1.65;;;1.55;;
76881;SDS011;65847;50.998;11.318;2022-12-18T10:39:14;2.03;;;1.80;;
76881;SDS011;65847;50.998;11.318;2022-12-18T10:41:40;2.92;;;1.90;;
76881;SDS011;65847;50.998;11.318;2022-12-18T10:44:16;2.10;;;1.92;;
76881;SDS011;65847;50.998;11.318;2022-12-18T10:46:44;1.90;;;1.70;;
76881;SDS011;65847;50.998;11.318;2022-12-18T10:49:26;1.75;;;1.63;;
76881;SDS011;65847;50.998;11.318;2022-12-18T10:52:04;2.08;;;1.83;;
76881;SDS011;65847;50.998;11.318;2022-12-18T10:54:30;2.13;;;1.90;;
76881;SDS011;65847;50.998;11.318;2022-12-18T10:59:52;2.20;;;1.73;;
76881;SDS011;65847;50.998;11.318;2022-12-18T11:02:35;2.10;;;1.90;;
76881;SDS011;65847;50.998;11.318;2022-12-18T11:05:03;2.35;;;2.15;;
76881;SDS011;65847;50.998;11.318;2022-12-18T11:07:46;1.95;;;1.75;;
76881;SDS011;65847;50.998;11.318;2022-12-18T11:10:16;2.20;;;2.00;;
76881;SDS011;65847;50.998;11.318;2022-12-18T11:12:42;1.85;;;1.75;;
76881;SDS011;65847;50.998;11.318;2022-12-18T11:15:41;2.00;;;1.80;;
76881;SDS011;65847;50.998;11.318;2022-12-18T11:18:00;2.03;;;1.70;;
76881;SDS011;65847;50.998;11.318;2022-12-18T11:20:31;1.80;;;1.70;;
76881;SDS011;65847;50.998;11.318;2022-12-18T11:23:01;2.08;;;1.80;;
76881;SDS011;65847;50.998;11.318;2022-12-18T11:25:28;2.17;;;1.98;;
76881;SDS011;65847;50.998;11.318;2022-12-18T11:28:08;1.70;;;1.60;;
76881;SDS011;65847;50.998;11.318;2022-12-18T11:31:14;2.13;;;1.88;;
76881;SDS011;65847;50.998;11.318;2022-12-18T11:33:42;1.95;;;1.73;;
76881;SDS011;65847;50.998;11.318;2022-12-18T11:36:10;2.20;;;2.00;;
76881;SDS011;65847;50.998;11.318;2022-12-18T11:38:37;1.90;;;1.80;;
76881;SDS011;65847;50.998;11.318;2022-12-18T11:41:07;2.72;;;1.95;;
76881;SDS011;65847;50.998;11.318;2022-12-18T11:43:38;1.90;;;1.60;;
76881;SDS011;65847;50.998;11.318;2022-12-18T11:46:23;1.92;;;1.80;;
76881;SDS011;65847;50.998;11.318;2022-12-18T11:48:54;1.63;;;1.52;;
76881;SDS011;65847;50.998;11.318;2022-12-18T11:51:35;1.70;;;1.60;;
76881;SDS011;65847;50.998;11.318;2022-12-18T11:54:13;1.83;;;1.63;;
76881;SDS011;65847;50.998;11.318;2022-12-18T11:57:02;1.92;;;1.73;;
76881;SDS011;65847;50.998;11.318;2022-12-18T12:05:06;2.03;;;1.83;;
76881;SDS011;65847;50.998;11.318;2022-12-18T12:12:54;2.20;;;2.00;;
76881;SDS011;65847;50.998;11.318;2022-12-18T12:31:14;1.90;;;1.80;;
76881;SDS011;65847;50.998;11.318;2022-12-18T12:36:20;2.08;;;1.88;;
76881;SDS011;65847;50.998;11.318;2022-12-18T12:38:49;2.35;;;2.03;;
76881;SDS011;65847;50.998;11.318;2022-12-18T12:41:27;2.33;;;1.90;;
76881;SDS011;65847;50.998;11.318;2022-12-18T12:44:20;2.67;;;2.08;;
76881;SDS011;65847;50.998;11.318;2022-12-18T12:46:48;1.88;;;1.77;;
76881;SDS011;65847;50.998;11.318;2022-12-18T12:49:15;2.13;;;1.80;;
76881;SDS011;65847;50.998;11.318;2022-12-18T12:51:43;2.10;;;1.90;;
76881;SDS011;65847;50.998;11.318;2022-12-18T12:54:23;1.95;;;1.70;;
76881;SDS011;65847;50.998;11.318;2022-12-18T12:57:05;2.15;;;1.95;;
76881;SDS011;65847;50.998;11.318;2022-12-18T13:02:28;1.88;;;1.70;;
76881;SDS011;65847;50.998;11.318;2022-12-18T13:07:29;2.22;;;1.88;;
76881;SDS011;65847;50.998;11.318;2022-12-18T13:10:19;2.45;;;2.25;;
76881;SDS011;65847;50.998;11.318;2022-12-18T13:12:55;1.85;;;1.75;;
76881;SDS011;65847;50.998;11.318;2022-12-18T13:15:26;2.10;;;1.90;;
76881;SDS011;65847;50.998;11.318;2022-12-18T13:23:01;2.40;;;2.17;;
76881;SDS011;65847;50.998;11.318;2022-12-18T13:34:23;2.38;;;2.17;;
76881;SDS011;65847;50.998;11.318;2022-12-18T13:36:51;1.95;;;1.83;;
76881;SDS011;65847;50.998;11.318;2022-12-18T13:41:45;2.28;;;2.08;;
76881;SDS011;65847;50.998;11.318;2022-12-18T13:47:26;2.50;;;2.15;;
76881;SDS011;65847;50.998;11.318;2022-12-18T13:49:53;2.28;;;2.00;;
76881;SDS011;65847;50.998;11.318;2022-12-18T13:54:50;3.25;;;2.60;;
76881;SDS011;65847;50.998;11.318;2022-12-18T14:00:27;2.55;;;2.33;;
76881;SDS011;65847;50.998;11.318;2022-12-18T14:02:54;2.80;;;2.40;;
76881;SDS011;65847;50.998;11.318;2022-12-18T14:05:27;3.05;;;2.50;;
76881;SDS011;65847;50.998;11.318;2022-12-18T14:07:54;3.47;;;2.90;;
76881;SDS011;65847;50.998;11.318;2022-12-18T14:10:21;3.22;;;2.28;;
76881;SDS011;65847;50.998;11.318;2022-12-18T14:12:48;3.47;;;2.75;;
76881;SDS011;65847;50.998;11.318;2022-12-18T14:15:30;3.20;;;2.35;;
76881;SDS011;65847;50.998;11.318;2022-12-18T14:20:35;3.17;;;2.88;;
76881;SDS011;65847;50.998;11.318;2022-12-18T14:23:01;3.25;;;2.63;;
76881;SDS011;65847;50.998;11.318;2022-12-18T14:25:30;3.35;;;2.90;;
76881;SDS011;65847;50.998;11.318;2022-12-18T14:30:38;4.20;;;3.22;;
76881;SDS011;65847;50.998;11.318;2022-12-18T14:35:32;2.97;;;2.67;;
76881;SDS011;65847;50.998;11.318;2022-12-18T14:40:36;2.97;;;2.67;;
76881;SDS011;65847;50.998;11.318;2022-12-18T14:43:02;3.15;;;2.83;;
76881;SDS011;65847;50.998;11.318;2022-12-18T14:47:58;3.72;;;2.97;;
76881;SDS011;65847;50.998;11.318;2022-12-18T14:50:24;3.90;;;3.05;;
76881;SDS011;65847;50.998;11.318;2022-12-18T14:52:51;3.72;;;2.97;;
76881;SDS011;65847;50.998;11.318;2022-12-18T14:55:18;3.47;;;2.85;;
76881;SDS011;65847;50.998;11.318;2022-12-18T14:57:45;3.30;;;2.97;;
76881;SDS011;65847;50.998;11.318;2022-12-18T15:00:15;3.45;;;2.95;;
76881;SDS011;65847;50.998;11.318;2022-12-18T15:02:42;3.28;;;2.90;;
76881;SDS011;65847;50.998;11.318;2022-12-18T15:07:41;4.43;;;3.17;;
76881;SDS011;65847;50.998;11.318;2022-12-18T15:10:20;3.88;;;3.38;;
76881;SDS011;65847;50.998;11.318;2022-12-18T15:16:12;3.58;;;2.83;;
76881;SDS011;65847;50.998;11.318;2022-12-18T15:18:50;3.50;;;3.15;;
76881;SDS011;65847;50.998;11.318;2022-12-18T15:21:19;3.92;;;3.05;;
76881;SDS011;65847;50.998;11.318;2022-12-18T15:23:59;3.80;;;3.10;;
76881;SDS011;65847;50.998;11.318;2022-12-18T15:26:25;3.95;;;3.13;;
76881;SDS011;65847;50.998;11.318;2022-12-18T15:28:54;4.00;;;3.42;;
76881;SDS011;65847;50.998;11.318;2022-12-18T15:31:23;3.95;;;3.33;;
76881;SDS011;65847;50.998;11.318;2022-12-18T15:36:24;5.55;;;3.35;;
76881;SDS011;65847;50.998;11.318;2022-12-18T15:38:56;4.20;;;3.45;;
76881;SDS011;65847;50.998;11.318;2022-12-18T15:41:22;4.93;;;3.42;;
76881;SDS011;65847;50.998;11.318;2022-12-18T15:43:50;4.53;;;3.40;;
76881;SDS011;65847;50.998;11.318;2022-12-18T15:46:17;4.32;;;3.03;;
76881;SDS011;65847;50.998;11.318;2022-12-18T15:52:11;4.00;;;3.60;;
76881;SDS011;65847;50.998;11.318;2022-12-18T15:55:01;4.97;;;4.47;;
76881;SDS011;65847;50.998;11.318;2022-12-18T15:57:45;5.40;;;3.80;;
76881;SDS011;65847;50.998;11.318;2022-12-18T16:00:11;4.95;;;4.07;;
76881;SDS011;65847;50.998;11.318;2022-12-18T16:02:37;4.72;;;3.38;;
76881;SDS011;65847;50.998;11.318;2022-12-18T16:05:05;5.10;;;4.07;;
76881;SDS011;65847;50.998;11.318;2022-12-18T16:07:35;6.43;;;4.43;;
76881;SDS011;65847;50.998;11.318;2022-12-18T16:10:01;5.57;;;4.22;;
76881;SDS011;65847;50.998;11.318;2022-12-18T16:12:27;4.13;;;3.58;;
76881;SDS011;65847;50.998;11.318;2022-12-18T16:14:53;4.65;;;3.90;;
76881;SDS011;65847;50.998;11.318;2022-12-18T16:17:19;6.35;;;3.92;;
76881;SDS011;65847;50.998;11.318;2022-12-18T16:19:46;4.65;;;4.13;;
76881;SDS011;65847;50.998;11.318;2022-12-18T16:22:21;4.13;;;3.72;;
76881;SDS011;65847;50.998;11.318;2022-12-18T16:24:48;4.60;;;4.20;;
76881;SDS011;65847;50.998;11.318;2022-12-18T16:27:14;4.95;;;3.88;;
76881;SDS011;65847;50.998;11.318;2022-12-18T16:29:40;4.15;;;3.75;;
76881;SDS011;65847;50.998;11.318;2022-12-18T16:32:08;4.57;;;3.95;;
76881;SDS011;65847;50.998;11.318;2022-12-18T16:34:34;4.53;;;3.63;;
76881;SDS011;65847;50.998;11.318;2022-12-18T16:37:02;3.88;;;3.45;;
76881;SDS011;65847;50.998;11.318;2022-12-18T16:39:28;5.45;;;3.80;;
76881;SDS011;65847;50.998;11.318;2022-12-18T16:44:21;15.07;;;13.98;;
76881;SDS011;65847;50.998;11.318;2022-12-18T16:46:48;22.75;;;21.05;;
76881;SDS011;65847;50.998;11.318;2022-12-18T16:49:14;19.95;;;18.48;;
76881;SDS011;65847;50.998;11.318;2022-12-18T16:51:41;21.55;;;19.95;;
76881;SDS011;65847;50.998;11.318;2022-12-18T16:54:07;27.60;;;25.60;;
76881;SDS011;65847;50.998;11.318;2022-12-18T16:59:00;51.80;;;46.47;;
76881;SDS011;65847;50.998;11.318;2022-12-18T17:01:27;84.60;;;75.68;;
76881;SDS011;65847;50.998;11.318;2022-12-18T17:04:00;142.57;;;128.90;;
76881;SDS011;65847;50.998;11.318;2022-12-18T17:06:28;112.10;;;101.40;;
76881;SDS011;65847;50.998;11.318;2022-12-18T17:09:05;123.00;;;111.38;;
76881;SDS011;65847;50.998;11.318;2022-12-18T17:11:32;121.07;;;109.38;;
76881;SDS011;65847;50.998;11.318;2022-12-18T17:13:58;121.35;;;109.60;;